createdAt,value
2023-05-02T00:02:05.567Z,1.20
2023-05-02T00:04:33.655Z,1.40
2023-05-02T00:07:01.664Z,1.20
2023-05-02T00:09:30.001Z,1.30
2023-05-02T00:11:57.930Z,1.40
2023-05-02T00:14:26.018Z,1.13
2023-05-02T00:16:55.569Z,1.33
2023-05-02T00:19:23.584Z,1.23
2023-05-02T00:21:51.690Z,1.30
2023-05-02T00:24:19.648Z,1.10
2023-05-02T00:26:47.588Z,1.40
2023-05-02T00:29:15.514Z,1.27
2023-05-02T00:31:43.471Z,1.20
2023-05-02T00:34:12.828Z,1.10
2023-05-02T00:36:40.724Z,1.40
2023-05-02T00:39:08.717Z,1.37
2023-05-02T00:41:36.625Z,1.27
2023-05-02T00:44:04.615Z,1.37
2023-05-02T00:46:32.605Z,1.20
2023-05-02T00:49:01.194Z,1.30
2023-05-02T00:51:30.533Z,1.30
2023-05-02T00:53:58.520Z,1.20
2023-05-02T00:56:26.675Z,1.50
2023-05-02T00:58:54.582Z,1.20
2023-05-02T01:01:31.001Z,1.27
2023-05-02T01:04:05.808Z,1.17
2023-05-02T01:06:41.296Z,1.20
2023-05-02T01:09:18.422Z,1.30
2023-05-02T01:11:49.802Z,1.20
2023-05-02T01:14:17.740Z,1.27
2023-05-02T01:16:46.429Z,1.20
2023-05-02T01:19:19.333Z,1.20
2023-05-02T01:21:48.561Z,1.13
2023-05-02T01:24:20.424Z,1.20
2023-05-02T01:26:53.035Z,1.27
2023-05-02T01:29:22.282Z,1.30
2023-05-02T01:31:51.451Z,1.20
2023-05-02T01:34:21.135Z,1.20
2023-05-02T01:36:49.809Z,1.27
2023-05-02T01:39:20.252Z,1.20
2023-05-02T01:41:49.484Z,1.37
2023-05-02T01:44:17.947Z,1.20
2023-05-02T01:46:47.264Z,1.20
2023-05-02T01:49:15.613Z,1.30
2023-05-02T01:51:47.278Z,1.17
2023-05-02T01:54:17.038Z,1.20
2023-05-02T01:56:45.553Z,1.30
2023-05-02T01:59:15.127Z,1.23
2023-05-02T02:01:43.641Z,1.20
2023-05-02T02:04:15.860Z,1.10
2023-05-02T02:06:45.671Z,1.40
2023-05-02T02:09:14.356Z,1.20
2023-05-02T02:11:45.683Z,1.20
2023-05-02T02:14:18.283Z,1.33
2023-05-02T02:16:46.228Z,1.20
2023-05-02T02:19:15.922Z,1.30
2023-05-02T02:21:44.514Z,1.40
2023-05-02T02:24:12.534Z,1.10
2023-05-02T02:26:40.447Z,1.10
2023-05-02T02:29:09.439Z,1.23
2023-05-02T02:31:39.048Z,1.40
2023-05-02T02:34:06.978Z,1.40
2023-05-02T02:36:38.857Z,1.40
2023-05-02T02:39:14.040Z,1.43
2023-05-02T02:41:49.483Z,1.30
2023-05-02T02:44:24.375Z,1.40
2023-05-02T02:46:54.629Z,1.30
2023-05-02T02:49:28.081Z,1.40
2023-05-02T02:52:01.370Z,1.30
2023-05-02T02:54:32.469Z,1.50
2023-05-02T02:57:03.179Z,1.40
2023-05-02T02:59:41.612Z,1.33
2023-05-02T03:02:10.459Z,1.40
2023-05-02T03:04:40.088Z,1.43
2023-05-02T03:07:09.310Z,1.30
2023-05-02T03:09:43.764Z,1.40
2023-05-02T03:12:19.037Z,1.60
2023-05-02T03:14:47.006Z,1.40
2023-05-02T03:17:15.098Z,1.40
2023-05-02T03:19:43.485Z,1.63
2023-05-02T03:22:13.014Z,1.50
2023-05-02T03:24:41.472Z,1.60
2023-05-02T03:27:10.721Z,1.40
2023-05-02T03:29:42.421Z,1.40
2023-05-02T03:32:13.803Z,1.53
2023-05-02T03:34:43.657Z,1.57
2023-05-02T03:37:13.513Z,1.60
2023-05-02T03:39:41.506Z,1.50
2023-05-02T03:42:09.470Z,1.40
2023-05-02T03:44:37.383Z,1.60
2023-05-02T03:47:05.409Z,1.80
2023-05-02T03:49:38.831Z,1.60
2023-05-02T03:52:08.121Z,1.60
2023-05-02T03:54:38.728Z,1.70
2023-05-02T03:57:07.975Z,1.40
2023-05-02T03:59:37.263Z,1.83
2023-05-02T04:02:14.285Z,2.10
2023-05-02T04:04:46.558Z,2.20
2023-05-02T04:07:19.269Z,2.50
2023-05-02T04:09:52.449Z,2.30
2023-05-02T04:12:21.189Z,2.57
2023-05-02T04:14:52.779Z,3.20
2023-05-02T04:17:24.180Z,3.30
2023-05-02T04:19:52.812Z,3.60
2023-05-02T04:22:25.186Z,3.20
2023-05-02T04:24:59.079Z,3.17
2023-05-02T04:27:29.803Z,4.10
2023-05-02T04:29:58.731Z,3.87
2023-05-02T04:32:26.939Z,5.27
2023-05-02T04:34:56.179Z,4.87
2023-05-02T04:37:24.985Z,4.33
2023-05-02T04:39:53.137Z,4.40
2023-05-02T04:42:26.702Z,4.23
2023-05-02T04:45:18.955Z,4.83
2023-05-02T04:47:47.515Z,4.50
2023-05-02T04:50:15.620Z,5.10
2023-05-02T04:52:43.508Z,5.40
2023-05-02T04:55:11.467Z,4.40
2023-05-02T04:57:41.165Z,6.67
2023-05-02T05:00:13.772Z,4.10
2023-05-02T05:02:41.769Z,5.40
2023-05-02T05:05:11.386Z,5.47
2023-05-02T05:07:39.821Z,4.47
2023-05-02T05:10:11.250Z,4.60
2023-05-02T05:12:47.293Z,4.10
2023-05-02T05:15:16.960Z,4.20
2023-05-02T05:17:50.119Z,4.40
2023-05-02T05:20:18.649Z,4.50
2023-05-02T05:22:50.366Z,4.67
2023-05-02T05:25:20.080Z,4.37
2023-05-02T05:27:52.451Z,4.50
2023-05-02T05:30:20.685Z,4.70
2023-05-02T05:32:48.698Z,4.40
2023-05-02T05:35:16.814Z,4.23
2023-05-02T05:37:44.779Z,4.23
2023-05-02T05:40:16.777Z,4.50
2023-05-02T05:42:50.768Z,4.10
2023-05-02T05:45:24.888Z,4.20
2023-05-02T05:47:53.609Z,4.27
2023-05-02T05:50:21.879Z,4.37
2023-05-02T05:52:50.131Z,4.27
2023-05-02T05:55:18.198Z,3.80
2023-05-02T05:57:46.168Z,3.97
2023-05-02T06:00:17.211Z,4.37
2023-05-02T06:02:48.561Z,3.53
2023-05-02T06:05:25.573Z,4.20
2023-05-02T06:07:53.676Z,3.70
2023-05-02T06:10:21.588Z,3.70
2023-05-02T06:12:49.869Z,4.27
2023-05-02T06:15:21.948Z,4.00
2023-05-02T06:17:51.887Z,4.37
2023-05-02T06:20:20.138Z,4.20
2023-05-02T06:22:48.046Z,3.90
2023-05-02T06:25:16.090Z,4.40
2023-05-02T06:27:43.966Z,4.17
2023-05-02T06:30:12.562Z,3.73
2023-05-02T06:32:44.100Z,4.00
2023-05-02T06:35:12.339Z,3.30
2023-05-02T06:37:40.218Z,4.23
2023-05-02T06:40:10.091Z,4.50
2023-05-02T06:42:37.983Z,4.17
2023-05-02T06:45:06.960Z,4.17
2023-05-02T06:47:34.856Z,4.20
2023-05-02T06:50:04.241Z,3.60
2023-05-02T06:52:32.151Z,4.13
2023-05-02T06:55:00.019Z,4.00
2023-05-02T06:57:27.996Z,3.77
2023-05-02T06:59:56.091Z,4.07
2023-05-02T07:02:24.095Z,3.50
2023-05-02T07:04:52.188Z,3.53
2023-05-02T07:07:22.057Z,3.73
2023-05-02T07:09:49.934Z,3.70
2023-05-02T07:12:17.847Z,3.93
2023-05-02T07:14:47.296Z,3.77
2023-05-02T07:17:15.668Z,3.87
2023-05-02T07:19:45.495Z,4.10
2023-05-02T07:22:13.857Z,4.43
2023-05-02T07:24:43.176Z,3.83
2023-05-02T07:27:11.130Z,3.90
2023-05-02T07:29:39.023Z,4.00
2023-05-02T07:32:07.049Z,3.90
2023-05-02T07:34:34.976Z,4.43
2023-05-02T07:37:02.943Z,3.83
2023-05-02T07:39:30.931Z,4.10
2023-05-02T07:42:00.222Z,4.20
2023-05-02T07:44:28.227Z,4.00
2023-05-02T07:46:56.384Z,4.20
2023-05-02T07:49:24.259Z,4.07
2023-05-02T07:51:52.168Z,4.10
2023-05-02T07:54:20.158Z,4.20
2023-05-02T07:56:48.883Z,4.07
2023-05-02T07:59:18.206Z,4.00
2023-05-02T08:01:46.126Z,4.30
2023-05-02T08:04:14.162Z,4.30
2023-05-02T08:06:42.341Z,4.30
2023-05-02T08:09:10.391Z,4.70
2023-05-02T08:11:38.318Z,4.90
2023-05-02T08:14:06.444Z,4.50
2023-05-02T08:16:35.736Z,4.73
2023-05-02T08:19:03.680Z,4.20
2023-05-02T08:21:32.181Z,4.83
2023-05-02T08:24:00.294Z,4.23
2023-05-02T08:26:28.377Z,4.93
2023-05-02T08:28:56.308Z,4.40
2023-05-02T08:31:24.244Z,4.40
2023-05-02T08:33:53.520Z,4.00
2023-05-02T08:36:21.461Z,4.40
2023-05-02T08:38:49.541Z,4.10
2023-05-02T08:41:18.555Z,4.63
2023-05-02T08:43:46.808Z,4.10
2023-05-02T08:46:15.799Z,4.50
2023-05-02T08:48:45.715Z,4.27
2023-05-02T08:51:16.750Z,3.97
2023-05-02T08:53:44.760Z,4.60
2023-05-02T08:56:13.149Z,4.10
2023-05-02T08:58:42.207Z,4.20
2023-05-02T09:01:11.501Z,4.60
2023-05-02T09:03:39.428Z,4.23
2023-05-02T09:06:08.717Z,4.20
2023-05-02T09:08:38.420Z,4.23
2023-05-02T09:11:06.479Z,4.90
2023-05-02T09:13:36.070Z,4.57
2023-05-02T09:16:04.817Z,4.30
2023-05-02T09:18:34.402Z,4.13
2023-05-02T09:21:02.998Z,4.43
2023-05-02T09:23:34.971Z,4.33
2023-05-02T09:26:15.057Z,4.60
2023-05-02T09:28:43.991Z,3.90
2023-05-02T09:31:12.862Z,4.50
2023-05-02T09:33:41.288Z,4.07
2023-05-02T09:36:09.925Z,4.07
2023-05-02T09:38:37.847Z,4.30
2023-05-02T09:41:07.201Z,4.10
2023-05-02T09:43:35.065Z,4.47
2023-05-02T09:46:04.055Z,4.63
2023-05-02T09:48:32.437Z,4.13
2023-05-02T09:51:01.446Z,4.10
2023-05-02T09:53:29.539Z,4.47
2023-05-02T09:56:01.356Z,4.17
2023-05-02T09:58:31.796Z,3.70
2023-05-02T10:01:00.194Z,3.80
2023-05-02T10:03:28.989Z,3.67
2023-05-02T10:05:57.251Z,4.30
2023-05-02T10:08:27.273Z,4.07
2023-05-02T10:10:55.962Z,3.53
2023-05-02T10:13:32.028Z,3.77
2023-05-02T10:16:03.003Z,4.13
2023-05-02T10:18:34.623Z,4.10
2023-05-02T10:21:06.538Z,4.10
2023-05-02T10:23:34.435Z,3.63
2023-05-02T10:26:02.354Z,4.27
2023-05-02T10:28:32.666Z,4.17
2023-05-02T10:31:02.894Z,4.23
2023-05-02T10:33:31.457Z,3.70
2023-05-02T10:35:59.510Z,4.00
2023-05-02T10:38:27.373Z,4.07
2023-05-02T10:40:57.102Z,4.00
2023-05-02T10:43:26.165Z,3.63
2023-05-02T10:45:54.989Z,3.93
2023-05-02T10:48:26.636Z,3.97
2023-05-02T10:50:56.059Z,3.60
2023-05-02T10:53:31.618Z,4.00
2023-05-02T10:56:10.202Z,3.33
2023-05-02T10:58:38.370Z,3.83
2023-05-02T11:01:40.586Z,4.20
2023-05-02T11:04:10.784Z,3.73
2023-05-02T11:07:00.061Z,3.90
2023-05-02T11:09:34.544Z,3.57
2023-05-02T11:12:04.782Z,3.67
2023-05-02T11:14:53.903Z,3.47
2023-05-02T11:17:22.517Z,3.70
2023-05-02T11:20:30.076Z,3.63
2023-05-02T11:23:22.683Z,3.70
2023-05-02T11:25:51.100Z,3.30
2023-05-02T11:28:41.424Z,4.00
2023-05-02T11:31:27.947Z,3.57
2023-05-02T11:33:59.238Z,3.60
2023-05-02T11:36:30.867Z,3.63
2023-05-02T11:39:00.677Z,3.70
2023-05-02T11:41:39.915Z,3.50
2023-05-02T11:44:08.000Z,3.50
2023-05-02T11:46:38.211Z,3.10
2023-05-02T11:49:09.649Z,3.67
2023-05-02T11:51:38.235Z,3.70
2023-05-02T11:54:10.265Z,3.20
2023-05-02T11:56:38.228Z,3.47
2023-05-02T11:59:06.378Z,3.10
2023-05-02T12:01:34.284Z,3.57
2023-05-02T12:04:05.605Z,3.20
2023-05-02T12:06:33.548Z,3.60
2023-05-02T12:09:09.396Z,3.40
2023-05-02T12:11:38.276Z,3.37
2023-05-02T12:14:06.712Z,3.50
2023-05-02T12:16:37.625Z,3.27
2023-05-02T12:19:05.740Z,2.90
2023-05-02T12:21:33.819Z,2.97
2023-05-02T12:24:02.054Z,3.47
2023-05-02T12:26:32.964Z,3.27
2023-05-02T12:29:02.648Z,3.47
2023-05-02T12:31:32.955Z,3.23
2023-05-02T12:34:01.550Z,3.20
2023-05-02T12:36:29.801Z,3.30
2023-05-02T12:39:04.223Z,2.83
2023-05-02T12:41:37.379Z,3.13
2023-05-02T12:44:05.684Z,2.93
2023-05-02T12:46:33.627Z,2.60
2023-05-02T12:49:05.878Z,3.00
2023-05-02T12:51:34.553Z,3.17
2023-05-02T12:54:02.692Z,3.30
2023-05-02T12:56:32.805Z,2.90
2023-05-02T12:59:05.102Z,3.60
2023-05-02T13:01:34.384Z,3.10
2023-05-02T13:04:02.630Z,2.77
2023-05-02T13:06:32.721Z,3.27
2023-05-02T13:09:00.883Z,2.90
2023-05-02T13:11:29.334Z,2.53
2023-05-02T13:13:57.474Z,2.70
2023-05-02T13:16:27.005Z,2.80
2023-05-02T13:18:55.114Z,3.17
2023-05-02T13:21:26.222Z,3.03
2023-05-02T13:23:55.318Z,2.80
2023-05-02T13:26:23.558Z,2.50
2023-05-02T13:28:51.463Z,2.67
2023-05-02T13:31:19.463Z,2.60
2023-05-02T13:33:48.816Z,2.60
2023-05-02T13:36:16.833Z,2.63
2023-05-02T13:38:44.721Z,2.70
2023-05-02T13:41:12.782Z,2.67
2023-05-02T13:43:40.776Z,2.60
2023-05-02T13:46:08.924Z,2.60
2023-05-02T13:48:38.033Z,2.60
2023-05-02T13:51:07.741Z,2.80
2023-05-02T13:53:35.716Z,2.33
2023-05-02T13:56:03.613Z,2.50
2023-05-02T13:58:31.605Z,2.50
2023-05-02T14:00:59.495Z,3.03
2023-05-02T14:03:27.571Z,2.97
2023-05-02T14:05:55.802Z,2.40
2023-05-02T14:08:25.129Z,2.47
2023-05-02T14:10:53.055Z,2.40
2023-05-02T14:13:23.364Z,2.50
2023-05-02T14:15:51.320Z,2.40
2023-05-02T14:18:21.451Z,2.47
2023-05-02T14:20:49.432Z,2.50
2023-05-02T14:23:19.061Z,2.50
2023-05-02T14:25:48.373Z,2.20
2023-05-02T14:28:16.649Z,2.33
2023-05-02T14:30:44.622Z,2.60
2023-05-02T14:33:12.608Z,2.20
2023-05-02T14:35:40.609Z,2.93
2023-05-02T14:38:08.569Z,2.40
2023-05-02T14:40:39.098Z,2.57
2023-05-02T14:43:08.418Z,2.20
2023-05-02T14:45:36.341Z,2.30
2023-05-02T14:48:04.337Z,2.40
2023-05-02T14:50:32.309Z,2.37
2023-05-02T14:53:00.269Z,2.23
2023-05-02T14:55:28.633Z,2.27
2023-05-02T14:57:58.068Z,2.27
2023-05-02T15:00:27.411Z,2.20
2023-05-02T15:02:55.448Z,2.30
2023-05-02T15:05:25.883Z,2.03
2023-05-02T15:07:53.867Z,2.27
2023-05-02T15:10:21.910Z,2.13
2023-05-02T15:12:50.790Z,2.17
2023-05-02T15:15:18.789Z,2.60
2023-05-02T15:17:48.122Z,2.20
2023-05-02T15:20:16.056Z,2.10
2023-05-02T15:22:48.583Z,1.97
2023-05-02T15:25:16.614Z,2.13
2023-05-02T15:27:44.513Z,2.40
2023-05-02T15:30:13.124Z,2.20
2023-05-02T15:32:41.246Z,2.00
2023-05-02T15:35:11.637Z,2.17
2023-05-02T15:37:40.037Z,2.10
2023-05-02T15:40:09.214Z,2.07
2023-05-02T15:42:37.892Z,2.03
2023-05-02T15:46:08.104Z,2.10
2023-05-02T15:48:38.181Z,2.07
2023-05-02T15:51:09.134Z,1.97
2023-05-02T15:53:39.557Z,1.80
2023-05-02T15:56:09.004Z,1.90
2023-05-02T15:58:36.999Z,2.10
2023-05-02T16:01:04.928Z,2.07
2023-05-02T16:03:34.289Z,2.07
2023-05-02T16:06:02.466Z,2.20
2023-05-02T16:08:31.713Z,2.00
2023-05-02T16:11:01.355Z,2.10
2023-05-02T16:13:29.315Z,1.97
2023-05-02T16:15:57.233Z,2.30
2023-05-02T16:18:28.199Z,2.10
2023-05-02T16:20:56.934Z,1.90
2023-05-02T16:23:25.646Z,2.20
2023-05-02T16:25:59.461Z,2.10
2023-05-02T16:28:27.363Z,1.80
2023-05-02T16:30:55.402Z,2.10
2023-05-02T16:33:23.357Z,2.00
2023-05-02T16:36:00.589Z,2.13
2023-05-02T16:38:28.785Z,1.90
2023-05-02T16:40:57.299Z,1.60
2023-05-02T16:43:26.668Z,2.07
2023-05-02T16:46:01.394Z,1.97
2023-05-02T16:48:29.493Z,1.90
2023-05-02T16:50:59.855Z,2.10
2023-05-02T16:53:30.484Z,2.07
2023-05-02T16:55:59.401Z,1.83
2023-05-02T16:58:28.819Z,1.93
2023-05-02T17:01:00.323Z,1.90
2023-05-02T17:03:28.878Z,1.90
2023-05-02T17:06:00.209Z,1.80
2023-05-02T17:08:28.359Z,1.83
2023-05-02T17:10:56.297Z,2.27
2023-05-02T17:13:24.279Z,1.90
2023-05-02T17:15:53.819Z,1.90
2023-05-02T17:18:21.885Z,1.90
2023-05-02T17:20:49.824Z,1.90
2023-05-02T17:23:17.742Z,1.80
2023-05-02T17:25:46.274Z,1.90
2023-05-02T17:28:14.170Z,1.80
2023-05-02T17:30:42.281Z,1.63
2023-05-02T17:33:11.787Z,1.90
2023-05-02T17:35:39.761Z,1.80
2023-05-02T17:38:07.688Z,2.00
2023-05-02T17:40:38.331Z,1.80
2023-05-02T17:43:06.384Z,1.70
2023-05-02T17:45:34.431Z,2.00
2023-05-02T17:48:03.977Z,2.00
2023-05-02T17:50:37.281Z,1.80
2023-05-02T17:53:05.781Z,2.00
2023-05-02T17:55:33.999Z,1.67
2023-05-02T17:58:02.098Z,1.73
2023-05-02T18:00:30.427Z,1.60
2023-05-02T18:02:58.403Z,1.80
2023-05-02T18:05:26.887Z,1.87
2023-05-02T18:07:58.781Z,1.70
2023-05-02T18:10:27.358Z,1.90
2023-05-02T18:12:55.286Z,1.70
2023-05-02T18:15:23.455Z,1.40
2023-05-02T18:17:51.585Z,1.80
2023-05-02T18:20:19.622Z,1.73
2023-05-02T18:22:47.568Z,1.60
2023-05-02T18:25:18.276Z,1.67
2023-05-02T18:27:46.223Z,1.90
2023-05-02T18:30:14.218Z,1.60
2023-05-02T18:32:42.167Z,1.73
2023-05-02T18:35:11.324Z,1.80
2023-05-02T18:37:39.216Z,1.83
2023-05-02T18:40:08.443Z,1.70
2023-05-02T18:42:37.726Z,1.47
2023-05-02T18:45:06.454Z,1.70
2023-05-02T18:47:34.909Z,1.47
2023-05-02T18:50:04.648Z,1.67
2023-05-02T18:52:32.524Z,1.60
2023-05-02T18:55:02.102Z,1.57
2023-05-02T18:57:30.243Z,1.70
2023-05-02T18:59:59.901Z,1.50
2023-05-02T19:02:28.051Z,1.70
2023-05-02T19:04:56.239Z,1.63
2023-05-02T19:07:24.196Z,1.43
2023-05-02T19:09:52.239Z,1.60
2023-05-02T19:12:20.095Z,1.50
2023-05-02T19:14:50.291Z,1.50
2023-05-02T19:17:22.338Z,1.43
2023-05-02T19:19:52.298Z,1.60
2023-05-02T19:22:22.142Z,1.53
2023-05-02T19:24:50.779Z,1.90
2023-05-02T19:27:18.709Z,1.70
2023-05-02T19:29:48.056Z,1.50
2023-05-02T19:32:16.104Z,1.60
2023-05-02T19:34:45.449Z,1.60
2023-05-02T19:37:13.545Z,1.50
2023-05-02T19:39:41.540Z,1.30
2023-05-02T19:42:09.450Z,1.60
2023-05-02T19:44:37.359Z,1.50
2023-05-02T19:47:05.524Z,1.50
2023-05-02T19:49:33.418Z,1.60
2023-05-02T19:52:03.069Z,1.50
2023-05-02T19:54:31.039Z,1.57
2023-05-02T19:56:59.260Z,1.50
2023-05-02T19:59:27.477Z,1.50
2023-05-02T20:01:55.678Z,1.50
2023-05-02T20:04:25.035Z,1.50
2023-05-02T20:06:55.162Z,1.40
2023-05-02T20:09:25.169Z,1.30
2023-05-02T20:11:53.070Z,1.50
2023-05-02T20:14:20.948Z,1.47
2023-05-02T20:16:48.869Z,1.50
2023-05-02T20:19:21.851Z,1.60
2023-05-02T20:21:50.034Z,1.33
2023-05-02T20:24:17.964Z,1.30
2023-05-02T20:26:47.178Z,1.40
2023-05-02T20:29:15.088Z,1.53
2023-05-02T20:31:44.707Z,1.50
2023-05-02T20:34:12.681Z,1.57
2023-05-02T20:36:40.613Z,1.30
2023-05-02T20:39:12.136Z,1.43
2023-05-02T20:41:40.230Z,1.40
2023-05-02T20:44:09.475Z,1.50
2023-05-02T20:46:37.944Z,1.30
2023-05-02T20:49:06.023Z,1.47
2023-05-02T20:51:33.876Z,1.50
2023-05-02T20:54:01.970Z,1.30
2023-05-02T20:56:30.123Z,1.40
2023-05-02T20:58:58.113Z,1.50
2023-05-02T21:01:28.057Z,1.10
2023-05-02T21:03:57.457Z,1.50
2023-05-02T21:06:25.451Z,1.40
2023-05-02T21:08:56.651Z,1.40
2023-05-02T21:11:26.576Z,1.30
2023-05-02T21:13:54.490Z,1.43
2023-05-02T21:16:22.639Z,1.60
2023-05-02T21:18:51.917Z,1.43
2023-05-02T21:21:19.863Z,1.30
2023-05-02T21:23:47.784Z,1.53
2023-05-02T21:26:15.659Z,1.60
2023-05-02T21:28:43.629Z,1.30
2023-05-02T21:31:11.917Z,1.43
2023-05-02T21:33:39.834Z,1.27
2023-05-02T21:36:12.502Z,1.40
2023-05-02T21:38:40.450Z,1.40
2023-05-02T21:41:08.882Z,1.50
2023-05-02T21:43:39.697Z,1.27
2023-05-02T21:46:07.649Z,1.50
2023-05-02T21:48:35.578Z,1.57
2023-05-02T21:51:09.264Z,1.40
2023-05-02T21:53:39.371Z,1.30
2023-05-02T21:56:07.526Z,1.30
2023-05-02T21:58:35.418Z,1.30
2023-05-02T22:01:03.522Z,1.43
2023-05-02T22:03:34.588Z,1.47
2023-05-02T22:06:05.904Z,1.50
2023-05-02T22:08:36.153Z,1.50
2023-05-02T22:11:08.012Z,1.50
2023-05-02T22:13:36.053Z,1.13
2023-05-02T22:16:04.146Z,1.50
2023-05-02T22:18:34.855Z,1.30
2023-05-02T22:21:03.677Z,1.50
2023-05-02T22:23:31.921Z,1.50
2023-05-02T22:26:01.307Z,1.40
2023-05-02T22:28:29.200Z,1.50
2023-05-02T22:30:57.241Z,1.50
2023-05-02T22:33:25.334Z,1.30
2023-05-02T22:35:53.282Z,1.13
2023-05-02T22:38:21.324Z,1.50
2023-05-02T22:40:49.276Z,1.40
2023-05-02T22:43:18.836Z,1.50
2023-05-02T22:45:47.232Z,1.60
2023-05-02T22:48:15.130Z,1.50
2023-05-02T22:50:43.664Z,1.53
2023-05-02T22:53:11.540Z,1.50
2023-05-02T22:55:39.557Z,1.50
2023-05-02T22:58:07.494Z,1.40
2023-05-02T23:00:37.062Z,1.33
2023-05-02T23:03:05.154Z,1.43
2023-05-02T23:05:33.104Z,1.60
2023-05-02T23:08:03.230Z,1.50
2023-05-02T23:10:31.147Z,1.50
2023-05-02T23:12:59.086Z,1.60
2023-05-02T23:15:27.309Z,1.50
2023-05-02T23:17:57.682Z,1.70
2023-05-02T23:20:25.737Z,1.73
2023-05-02T23:22:53.601Z,1.50
2023-05-02T23:25:21.520Z,1.60
2023-05-02T23:27:49.448Z,1.43
2023-05-02T23:30:17.484Z,1.40
2023-05-02T23:32:45.498Z,1.57
2023-05-02T23:35:14.791Z,1.50
2023-05-02T23:37:42.687Z,1.57
2023-05-02T23:40:11.051Z,1.60
2023-05-02T23:42:40.115Z,1.30
2023-05-02T23:45:08.982Z,1.30
2023-05-02T23:47:37.355Z,1.80
2023-05-02T23:50:05.686Z,1.50
2023-05-02T23:52:35.090Z,1.60
2023-05-02T23:55:03.187Z,1.60
2023-05-02T23:57:31.125Z,1.63
2023-05-02T23:59:59.022Z,1.57
